Aba, Nigeria
Current Conditions -  °F | °C
As of 1:00 AM on Tuesday 23 Dec 2014 (Local Time) from FGSL Reporting Station
Few Clouds Few Clouds  
Wind Chill: 77°   Ceiling: Unl
Heat Index: 78°   Visibility: 5mi
Dew Point: 75°   Wind: 5mph
Humidity: 94%   Direction: 230°SW
Pressure: 29.91"   Gusts: NA
Location:  5.1°N, 7.35°E
Report Text: FGSL 230000Z 23004KT 8000 FEW008 25/24 Q1013 NOSIG
Loading
Personal Weather Stations






























Interactive Weather Map New forecast layout! Learn more

10-Day Weather Forecast

Advertisements
Track Severe Weather on mobile